Time;durP1;ratioP1;P1;durP2;ratioP2;P2;SDS_P1;SDS_P2;PMS_P1;PMS_P2;Temp;Humidity;BMP_temperature;BMP_pressure;BME280_temperature;BME280_humidity;BME280_pressure;Samples;Min_cycle;Max_cycle;Signal;HPM_P1;HPM_P2
2022/08/26 00:00:45;;;;;;;18.40;8.05;;;;;;;21.17;100.00;98046.75;1795406;79;28076;-88
2022/08/26 00:03:16;;;;;;;12.07;6.80;;;;;;;21.04;100.00;98042.06;1794822;79;28070;-88
2022/08/26 00:05:45;;;;;;;8.98;6.33;;;;;;;20.94;100.00;98046.83;1793049;78;28073;-88
2022/08/26 00:08:13;;;;;;;12.05;5.90;;;;;;;20.89;100.00;98046.55;1781446;78;28028;-88
2022/08/26 00:10:41;;;;;;;9.63;6.10;;;;;;;20.96;100.00;98040.80;1786629;79;28068;-88
2022/08/26 00:13:17;;;;;;;12.18;6.15;;;;;;;21.02;100.00;98047.23;1782810;79;28157;-88
2022/08/26 00:15:54;;;;;;;9.58;5.60;;;;;;;20.94;100.00;98042.84;1796090;79;28159;-89
2022/08/26 00:18:24;;;;;;;10.30;5.87;;;;;;;20.92;100.00;98038.69;1787482;78;28077;-89
2022/08/26 00:20:52;;;;;;;13.43;6.22;;;;;;;21.00;100.00;98035.42;1789848;79;28147;-88
2022/08/26 00:23:19;;;;;;;10.70;5.75;;;;;;;21.07;100.00;98031.54;1788325;79;28118;-89
2022/08/26 00:25:48;;;;;;;10.60;4.97;;;;;;;20.96;100.00;98038.64;1787032;78;28151;-88
2022/08/26 00:28:15;;;;;;;12.58;5.10;;;;;;;20.83;100.00;98033.97;1795279;78;28114;-88
2022/08/26 00:30:48;;;;;;;10.53;5.20;;;;;;;20.74;100.00;98039.85;1791032;79;28158;-88
2022/08/26 00:33:18;;;;;;;12.35;5.05;;;;;;;20.78;100.00;98033.69;1791167;78;32521;-88
2022/08/26 00:35:46;;;;;;;10.72;5.22;;;;;;;20.88;100.00;98032.42;1790742;78;28222;-89
2022/08/26 00:38:13;;;;;;;13.25;5.85;;;;;;;20.88;100.00;98033.75;1766195;79;28058;-88
2022/08/26 00:40:46;;;;;;;14.23;6.00;;;;;;;20.82;100.00;98036.30;1816285;78;28070;-88
2022/08/26 00:43:13;;;;;;;10.10;5.58;;;;;;;20.80;100.00;98035.14;1813452;78;28113;-88
2022/08/26 00:45:48;;;;;;;12.78;5.33;;;;;;;20.85;100.00;98035.42;1810939;77;28115;-88
2022/08/26 00:48:30;;;;;;;10.32;5.70;;;;;;;20.92;100.00;98034.20;1819488;78;28131;-89
2022/08/26 00:51:05;;;;;;;9.45;5.60;;;;;;;20.86;100.00;98030.43;1818875;77;28149;-88
2022/08/26 00:53:36;;;;;;;11.53;5.47;;;;;;;20.84;100.00;98030.28;1812725;77;28087;-88
2022/08/26 00:56:08;;;;;;;8.07;5.37;;;;;;;20.77;100.00;98034.19;1822917;78;28074;-88
2022/08/26 00:58:41;;;;;;;12.75;5.97;;;;;;;20.74;100.00;98033.70;1815108;77;28006;-88
2022/08/26 01:01:10;;;;;;;12.68;5.58;;;;;;;20.75;100.00;98030.88;1813784;77;28177;-88
2022/08/26 01:03:45;;;;;;;12.98;6.08;;;;;;;20.85;100.00;98027.44;1804182;77;28110;-89
2022/08/26 01:06:15;;;;;;;16.75;6.90;;;;;;;20.94;100.00;98028.20;1811632;77;28074;-88
2022/08/26 01:08:46;;;;;;;13.55;6.58;;;;;;;20.97;100.00;98025.16;1812568;77;28147;-88
2022/08/26 01:11:15;;;;;;;11.22;6.42;;;;;;;20.96;100.00;98024.01;1819151;78;28124;-88
2022/08/26 01:13:41;;;;;;;12.05;6.08;;;;;;;20.92;100.00;98019.56;1809999;77;28062;-88
2022/08/26 01:16:15;;;;;;;10.63;6.28;;;;;;;20.91;100.00;98021.06;1812816;78;28069;-88
2022/08/26 01:18:45;;;;;;;11.20;6.80;;;;;;;20.91;100.00;98020.56;1810061;77;28181;-88
2022/08/26 01:21:27;;;;;;;9.70;6.72;;;;;;;20.90;100.00;98017.58;1811151;77;28116;-87
2022/08/26 01:23:59;;;;;;;13.05;6.28;;;;;;;20.90;100.00;98021.57;1815505;77;28010;-88
2022/08/26 01:26:28;;;;;;;9.48;5.75;;;;;;;20.81;100.00;98027.98;1816258;76;28061;-88
2022/08/26 01:29:00;;;;;;;8.15;5.67;;;;;;;20.73;100.00;98024.09;1808967;77;28080;-87
2022/08/26 01:31:36;;;;;;;14.28;6.67;;;;;;;20.70;100.00;98025.27;1811538;77;28178;-88
2022/08/26 01:34:16;;;;;;;10.63;5.37;;;;;;;20.56;100.00;98028.73;1814620;78;28073;-89
2022/08/26 01:36:46;;;;;;;13.10;5.92;;;;;;;20.45;100.00;98027.34;1810406;77;28058;-88
2022/08/26 01:39:17;;;;;;;7.50;5.70;;;;;;;20.37;100.00;98026.06;1814102;77;28009;-88
2022/08/26 01:41:46;;;;;;;9.13;5.47;;;;;;;20.25;100.00;98023.46;1813103;78;28078;-88
2022/08/26 01:44:16;;;;;;;11.18;5.50;;;;;;;20.12;100.00;98024.58;1807279;77;28023;-88
2022/08/26 01:46:44;;;;;;;9.53;5.08;;;;;;;20.05;100.00;98026.28;1808138;77;28085;-87
2022/08/26 01:49:12;;;;;;;11.03;5.53;;;;;;;20.16;100.00;98023.20;1820527;77;28067;-88
2022/08/26 01:51:43;;;;;;;9.38;6.20;;;;;;;20.29;100.00;98018.11;1813211;77;28090;-89
2022/08/26 01:54:11;;;;;;;8.88;5.75;;;;;;;20.38;100.00;98017.59;1818534;77;28144;-89
2022/08/26 01:56:45;;;;;;;11.45;6.10;;;;;;;20.42;100.00;98017.05;1805481;77;28089;-88
2022/08/26 01:59:18;;;;;;;11.20;5.50;;;;;;;20.42;100.00;98016.22;1817278;77;28398;-88
2022/08/26 02:01:48;;;;;;;11.03;6.33;;;;;;;20.43;100.00;98016.55;1774229;79;28120;-88
2022/08/26 02:04:18;;;;;;;12.50;6.53;;;;;;;20.44;100.00;98021.69;1749409;81;28083;-89
2022/08/26 02:06:45;;;;;;;16.52;6.60;;;;;;;20.46;100.00;98020.99;1735279;81;28084;-88
2022/08/26 02:09:17;;;;;;;10.68;5.58;;;;;;;20.47;100.00;98025.80;1725053;82;28101;-88
2022/08/26 02:11:44;;;;;;;9.05;6.22;;;;;;;20.44;100.00;98020.36;1754206;81;28155;-89
2022/08/26 02:14:20;;;;;;;11.05;6.22;;;;;;;20.34;100.00;98021.12;1759017;81;28093;-89
2022/08/26 02:16:59;;;;;;;8.85;6.00;;;;;;;20.15;100.00;98016.23;1736348;80;28161;-88
2022/08/26 02:19:34;;;;;;;9.55;6.47;;;;;;;20.11;100.00;98025.58;1743571;80;28086;-88
2022/08/26 02:22:10;;;;;;;9.58;5.62;;;;;;;20.13;100.00;98022.22;1740137;80;28153;-88
2022/08/26 02:24:57;;;;;;;13.32;5.92;;;;;;;20.19;100.00;98019.36;1742556;81;28517;-89
2022/08/26 02:27:32;;;;;;;11.10;6.83;;;;;;;20.28;100.00;98015.15;1740186;81;28091;-88
2022/08/26 02:30:18;;;;;;;19.45;6.83;;;;;;;20.29;100.00;98019.44;1743720;81;28097;-88
2022/08/26 02:32:45;;;;;;;15.08;6.92;;;;;;;20.15;100.00;98016.23;1777950;79;28066;-88
2022/08/26 02:35:23;;;;;;;17.27;6.95;;;;;;;20.00;100.00;98022.00;1778274;79;28069;-88
2022/08/26 02:37:51;;;;;;;14.40;7.42;;;;;;;19.89;100.00;98019.75;1779229;79;28119;-88
2022/08/26 02:40:24;;;;;;;15.58;7.08;;;;;;;19.84;100.00;98021.61;1769090;79;28129;-88
2022/08/26 02:42:50;;;;;;;12.90;7.10;;;;;;;19.96;100.00;98021.53;1743045;80;28074;-87
2022/08/26 02:45:17;;;;;;;12.82;7.15;;;;;;;20.05;100.00;98018.30;1741466;81;28070;-88
2022/08/26 02:47:44;;;;;;;10.58;6.83;;;;;;;20.01;100.00;98016.52;1715930;81;28067;-88
2022/08/26 02:50:11;;;;;;;15.88;6.42;;;;;;;19.99;100.00;98020.34;1727383;82;28082;-88
2022/08/26 02:52:37;;;;;;;10.55;6.37;;;;;;;19.92;100.00;98024.19;1744221;80;28188;-88
2022/08/26 02:55:06;;;;;;;9.65;6.22;;;;;;;19.86;100.00;98019.58;1754867;80;28094;-87
2022/08/26 02:57:32;;;;;;;10.03;6.28;;;;;;;19.84;100.00;98021.61;1747367;81;28021;-87
2022/08/26 03:00:10;;;;;;;13.80;6.85;;;;;;;19.96;100.00;98021.53;1744186;80;28076;-88
2022/08/26 03:02:36;;;;;;;10.38;6.33;;;;;;;20.11;100.00;98020.27;1745183;81;28110;-88
2022/08/26 03:05:03;;;;;;;12.50;6.47;;;;;;;20.24;100.00;98020.98;1752672;80;28122;-88
2022/08/26 03:07:30;;;;;;;12.65;6.22;;;;;;;20.32;100.00;98021.78;1744973;80;28094;-89
2022/08/26 03:09:57;;;;;;;11.18;6.15;;;;;;;20.35;100.00;98021.41;1751410;81;28083;-88
2022/08/26 03:12:23;;;;;;;10.93;5.85;;;;;;;20.23;100.00;98022.83;1743044;81;28097;-89
2022/08/26 03:14:59;;;;;;;10.75;5.72;;;;;;;20.10;100.00;98018.60;1727216;81;28059;-89
2022/08/26 03:17:28;;;;;;;9.70;6.40;;;;;;;19.98;100.00;98027.98;1748846;81;28116;-89
2022/08/26 03:19:55;;;;;;;12.53;6.47;;;;;;;19.89;100.00;98021.91;1747254;81;28050;-89
2022/08/26 03:22:21;;;;;;;11.93;5.78;;;;;;;19.87;100.00;98016.42;1749078;81;27999;-88
2022/08/26 03:24:48;;;;;;;10.03;6.17;;;;;;;19.95;100.00;98017.22;1719346;81;28173;-88
2022/08/26 03:27:18;;;;;;;11.73;5.53;;;;;;;19.93;100.00;98015.73;1741858;80;28081;-88
2022/08/26 03:32:44;;;;;;;9.08;5.62;;;;;;;19.70;100.00;98006.91;1749619;81;28071;-88
2022/08/26 03:35:22;;;;;;;7.78;5.10;;;;;;;19.64;100.00;98005.77;1745122;80;28157;-88
2022/08/26 03:37:54;;;;;;;8.95;5.15;;;;;;;19.54;100.00;98002.02;1748036;81;28120;-88
2022/08/26 03:40:21;;;;;;;9.95;4.67;;;;;;;19.47;100.00;97997.59;1750785;80;28159;-88
2022/08/26 03:42:58;;;;;;;7.45;4.37;;;;;;;19.40;100.00;97998.75;1721211;81;28085;-88
2022/08/26 03:45:27;;;;;;;7.90;5.03;;;;;;;19.42;100.00;97997.26;1744416;81;28015;-88
2022/08/26 03:48:07;;;;;;;9.35;5.15;;;;;;;19.51;100.00;97997.06;1748729;81;28060;-89
2022/08/26 03:50:34;;;;;;;9.67;4.20;;;;;;;19.66;100.00;97993.16;1743891;81;28079;-88
2022/08/26 03:53:03;;;;;;;10.38;5.45;;;;;;;19.78;100.00;97996.25;1751223;81;28095;-88
2022/08/26 03:55:33;;;;;;;9.58;5.33;;;;;;;19.83;100.00;97991.23;1749039;80;28121;-88
2022/08/26 03:58:01;;;;;;;8.65;5.05;;;;;;;19.87;100.00;97993.36;1749566;81;28068;-88
2022/08/26 04:00:27;;;;;;;11.35;4.62;;;;;;;19.90;100.00;97998.83;1749082;81;28158;-88
2022/08/26 04:03:01;;;;;;;9.00;4.50;;;;;;;19.87;100.00;97996.51;1742630;81;28075;-88
2022/08/26 04:05:33;;;;;;;8.83;4.90;;;;;;;19.87;100.00;97996.02;1743527;81;28475;-87
2022/08/26 04:08:05;;;;;;;9.90;5.33;;;;;;;19.87;100.00;97995.18;1750556;81;28176;-87
2022/08/26 04:10:31;;;;;;;9.63;5.17;;;;;;;19.87;100.00;97995.18;1743090;81;28048;-88
2022/08/26 04:12:58;;;;;;;9.00;5.03;;;;;;;19.88;100.00;97991.53;1744784;81;28109;-87
2022/08/26 04:15:29;;;;;;;13.85;5.62;;;;;;;19.87;100.00;97995.18;1757137;81;28123;-88
2022/08/26 04:17:59;;;;;;;7.30;4.70;;;;;;;19.87;100.00;97993.36;1749380;80;28128;-88
2022/08/26 04:20:34;;;;;;;13.08;5.75;;;;;;;19.90;100.00;97992.19;1738787;81;28125;-88
2022/08/26 04:23:09;;;;;;;9.85;5.42;;;;;;;19.90;100.00;97997.00;1748963;81;28091;-88
2022/08/26 04:25:38;;;;;;;9.85;5.55;;;;;;;19.90;100.00;97999.66;1750895;81;28018;-89
2022/08/26 04:28:12;;;;;;;7.55;5.75;;;;;;;19.89;100.00;97992.69;1745948;81;28154;-88
2022/08/26 04:30:43;;;;;;;8.53;5.60;;;;;;;19.87;100.00;97994.68;1747913;81;28066;-88
2022/08/26 04:33:09;;;;;;;6.15;5.17;;;;;;;19.85;100.00;97990.07;1750032;80;28113;-88
2022/08/26 04:35:38;;;;;;;8.38;4.85;;;;;;;19.86;100.00;97990.87;1750595;81;28070;-88
2022/08/26 04:38:05;;;;;;;9.70;5.87;;;;;;;19.83;100.00;97988.08;1744864;80;28187;-88
2022/08/26 04:40:32;;;;;;;8.00;4.40;;;;;;;19.69;100.00;97992.00;1735983;80;28123;-88
2022/08/26 04:42:58;;;;;;;10.48;4.90;;;;;;;19.52;100.00;97992.59;1711331;82;28188;-88
2022/08/26 04:45:30;;;;;;;9.08;5.05;;;;;;;19.38;100.00;97986.64;1716061;82;28134;-88
2022/08/26 04:47:57;;;;;;;6.37;5.25;;;;;;;19.26;100.00;97991.50;1709981;82;28180;-88
2022/08/26 04:50:25;;;;;;;6.87;4.50;;;;;;;19.16;100.00;97986.90;1711715;82;28125;-88
2022/08/26 04:52:51;;;;;;;7.85;5.40;;;;;;;19.19;100.00;97990.55;1714263;82;28260;-88
2022/08/26 04:55:24;;;;;;;9.95;4.83;;;;;;;19.26;100.00;97994.15;1705508;82;28146;-88
2022/08/26 04:57:52;;;;;;;9.40;4.60;;;;;;;19.32;100.00;97989.98;1712443;82;28193;-88
2022/08/26 05:00:23;;;;;;;6.90;4.35;;;;;;;19.48;100.00;97992.59;1704125;82;28085;-88
2022/08/26 05:02:52;;;;;;;10.35;5.72;;;;;;;19.59;100.00;97993.02;1713141;82;28109;-88
2022/08/26 05:05:21;;;;;;;9.63;6.03;;;;;;;19.72;100.00;97993.79;1710164;82;28084;-88
2022/08/26 05:07:51;;;;;;;10.63;5.10;;;;;;;19.74;100.00;97996.28;1769342;80;28120;-88
2022/08/26 05:10:23;;;;;;;8.45;4.47;;;;;;;19.70;100.00;97994.45;1773443;79;28143;-88
2022/08/26 05:13:02;;;;;;;10.23;5.62;;;;;;;19.77;100.00;97999.90;1768450;80;28089;-88
2022/08/26 05:15:28;;;;;;;9.38;4.75;;;;;;;19.89;100.00;97998.50;1773873;80;28085;-88
2022/08/26 05:18:04;;;;;;;10.38;4.58;;;;;;;19.89;100.00;98001.16;1775094;80;28061;-88
2022/08/26 05:20:38;;;;;;;7.00;4.03;;;;;;;19.86;100.00;97997.50;1770568;79;28105;-88
2022/08/26 05:23:05;;;;;;;10.08;4.28;;;;;;;19.87;100.00;97996.02;1755375;80;28122;-88
2022/08/26 05:25:31;;;;;;;6.20;4.45;;;;;;;19.95;100.00;97993.81;1770494;80;28173;-88
2022/08/26 05:27:58;;;;;;;7.35;5.22;;;;;;;19.97;100.00;97991.78;1772677;79;28107;-88
2022/08/26 05:30:28;;;;;;;8.65;5.30;;;;;;;19.92;100.00;97992.81;1773892;79;27988;-88
2022/08/26 05:33:03;;;;;;;11.90;5.50;;;;;;;19.89;100.00;97996.67;1764320;80;28063;-89
2022/08/26 05:35:32;;;;;;;9.43;4.92;;;;;;;19.92;100.00;97996.80;1770279;79;28047;-89
2022/08/26 05:37:59;;;;;;;12.53;5.50;;;;;;;19.96;100.00;97992.31;1774462;80;28139;-88
2022/08/26 05:40:27;;;;;;;7.17;4.97;;;;;;;19.99;100.00;97996.43;1765443;78;28237;-88
2022/08/26 05:42:55;;;;;;;11.63;5.17;;;;;;;20.00;100.00;97996.77;1734236;81;27992;-88
2022/08/26 05:45:24;;;;;;;11.30;5.45;;;;;;;20.05;100.00;97987.76;1757389;80;28064;-88
2022/08/26 05:47:53;;;;;;;13.20;5.80;;;;;;;20.13;100.00;97986.88;1757531;80;28099;-88
2022/08/26 05:50:27;;;;;;;10.68;5.40;;;;;;;20.16;100.00;97988.67;1757547;80;28172;-88
2022/08/26 05:52:53;;;;;;;8.13;5.17;;;;;;;20.19;100.00;97982.98;1753205;81;28077;-88
2022/08/26 05:55:23;;;;;;;13.48;5.20;;;;;;;20.35;100.00;97984.20;1756325;80;28093;-88
2022/08/26 05:57:55;;;;;;;8.75;5.42;;;;;;;20.53;100.00;97979.06;1754880;81;28067;-88
2022/08/26 06:00:21;;;;;;;10.10;5.67;;;;;;;20.68;100.00;97984.72;1749458;81;28104;-88
2022/08/26 06:03:17;;;;;;;16.12;5.95;;;;;;;20.84;100.00;97991.20;1750972;81;28081;-88
2022/08/26 06:06:09;;;;;;;10.75;5.95;;;;;;;20.92;100.00;97996.95;1755776;80;27981;-88
2022/08/26 06:08:39;;;;;;;7.33;4.15;;;;;;;20.95;100.00;97991.78;1755564;81;28071;-88
2022/08/26 06:11:11;;;;;;;9.30;4.35;;;;;;;20.97;100.00;97991.91;1757230;81;28071;-88
2022/08/26 06:13:39;;;;;;;14.30;6.28;;;;;;;21.01;100.00;97993.69;1755790;80;28118;-88
2022/08/26 06:16:12;;;;;;;17.50;5.97;;;;;;;21.05;100.00;97994.49;1756809;78;28153;-88
2022/08/26 06:18:46;;;;;;;9.95;6.20;;;;;;;21.11;100.00;97993.73;1760006;78;28059;-89
2022/08/26 06:21:22;;;;;;;10.32;5.78;;;;;;;21.12;100.00;97987.40;1753511;80;28223;-89
2022/08/26 06:26:51;;;;;;;9.80;6.40;;;;;;;21.25;100.00;97996.11;1752352;81;28138;-89
2022/08/26 06:29:21;;;;;;;;;;;;;;;21.35;100.00;97996.64;1761839;80;28084;-89
2022/08/26 06:32:05;;;;;;;12.98;7.33;;;;;;;21.35;100.00;97996.64;1758221;81;22070;-90
2022/08/26 06:34:49;;;;;;;15.00;6.83;;;;;;;21.41;100.00;97995.91;1758173;80;28137;-89
2022/08/26 06:37:17;;;;;;;14.45;6.87;;;;;;;21.40;100.00;97996.91;1757763;80;28138;-89
2022/08/26 06:39:45;;;;;;;16.95;6.97;;;;;;;21.28;100.00;97997.88;1760145;80;28132;-89
2022/08/26 06:42:23;;;;;;;16.20;6.87;;;;;;;21.22;100.00;98001.81;1799169;78;28011;-87
2022/08/26 06:44:49;;;;;;;11.85;6.47;;;;;;;21.20;100.00;98004.66;1807999;78;28130;-87
2022/08/26 06:47:15;;;;;;;13.30;7.67;;;;;;;21.13;100.00;98002.86;1803525;78;27997;-87
2022/08/26 06:49:45;;;;;;;14.83;7.22;;;;;;;21.09;100.00;97999.76;1813284;77;27991;-89
2022/08/26 06:52:26;;;;;;;16.15;7.28;;;;;;;21.16;100.00;97996.72;1814609;77;28091;-89
2022/08/26 06:55:07;;;;;;;10.40;7.15;;;;;;;21.14;100.00;98005.38;1809035;78;28116;-91
2022/08/26 06:57:39;;;;;;;12.03;8.45;;;;;;;21.11;100.00;98001.71;1807117;78;28175;-90
2022/08/26 07:00:14;;;;;;;18.32;8.10;;;;;;;21.19;100.00;98005.66;1799184;78;28159;-90
2022/08/26 07:02:44;;;;;;;19.85;8.33;;;;;;;21.29;100.00;97998.70;1808174;78;28199;-89
2022/08/26 07:05:11;;;;;;;14.25;8.33;;;;;;;21.31;100.00;97999.87;1810463;78;28084;-90
2022/08/26 07:07:37;;;;;;;12.28;7.72;;;;;;;21.33;100.00;97997.86;1822763;78;28107;-90
2022/08/26 07:10:08;;;;;;;21.57;8.70;;;;;;;21.42;100.00;98000.72;1784915;78;28138;-89
2022/08/26 07:12:42;;;;;;;12.93;8.60;;;;;;;21.56;100.00;98000.69;1809671;78;28172;-89
2022/08/26 07:15:10;;;;;;;17.82;8.75;;;;;;;21.59;100.00;98000.83;1815443;78;28197;-89
2022/08/26 07:17:41;;;;;;;15.83;9.30;;;;;;;21.57;100.00;98005.51;1806531;78;28174;-90
2022/08/26 07:20:13;;;;;;;20.30;8.88;;;;;;;21.62;100.00;98005.77;1808515;78;28100;-89
2022/08/26 07:22:46;;;;;;;15.63;8.73;;;;;;;21.66;100.00;98005.70;1813301;78;28128;-89
2022/08/26 07:25:15;;;;;;;18.17;9.43;;;;;;;21.78;100.00;97997.55;1827536;77;28153;-89
2022/08/26 07:27:44;;;;;;;18.65;7.95;;;;;;;21.84;100.00;97987.48;1808829;78;28062;-88
2022/08/26 07:30:16;;;;;;;13.58;6.60;;;;;;;21.92;100.00;97996.70;1812331;78;28094;-88
2022/08/26 07:32:45;;;;;;;13.95;8.13;;;;;;;21.92;100.00;97998.53;1808397;77;28173;-88
2022/08/26 07:35:11;;;;;;;15.38;7.05;;;;;;;21.87;100.00;97999.61;1812069;78;28055;-88
2022/08/26 07:37:54;;;;;;;21.02;7.92;;;;;;;21.84;100.00;97995.98;1810170;78;28068;-88
2022/08/26 07:40:33;;;;;;;15.10;7.40;;;;;;;21.82;100.00;97994.82;1808934;78;28070;-88
2022/08/26 07:43:05;;;;;;;19.23;8.28;;;;;;;21.93;100.00;97994.86;1763711;78;28055;-88
2022/08/26 07:46:00;;;;;;;17.77;8.18;;;;;;;22.11;100.00;97987.27;1755032;81;28075;-88
2022/08/26 07:48:33;;;;;;;16.80;8.13;;;;;;;22.14;100.00;97989.56;1759668;81;28091;-89
2022/08/26 07:51:03;;;;;;;17.48;7.80;;;;;;;22.13;100.00;97982.58;1750141;81;28090;-89
2022/08/26 07:53:39;;;;;;;15.80;7.00;;;;;;;22.28;100.00;97983.83;1753545;80;28063;-88
2022/08/26 07:56:07;;;;;;;17.75;7.58;;;;;;;22.37;100.00;97984.00;1755319;81;28141;-88
2022/08/26 07:58:33;;;;;;;17.90;7.97;;;;;;;22.42;100.00;97985.07;1753764;80;28024;-89
2022/08/26 08:01:08;;;;;;;15.03;7.47;;;;;;;22.56;100.00;97987.34;1753098;80;28136;-88
2022/08/26 08:03:37;;;;;;;18.57;8.28;;;;;;;22.58;100.00;97987.99;1760504;78;28170;-88
2022/08/26 08:06:12;;;;;;;15.53;6.75;;;;;;;22.64;100.00;97994.39;1756337;81;28000;-88
2022/08/26 08:08:59;;;;;;;16.75;6.60;;;;;;;22.63;100.00;97988.23;1752390;80;28072;-88
2022/08/26 08:11:28;;;;;;;14.68;6.35;;;;;;;22.59;100.00;97986.12;1758459;80;28192;-88
2022/08/26 08:14:07;;;;;;;16.12;6.47;;;;;;;22.64;100.00;97981.06;1754675;78;28006;-88
2022/08/26 08:16:49;;;;;;;21.42;6.80;;;;;;;22.68;100.00;97978.31;1760752;79;28154;-88
2022/08/26 08:19:17;;;;;;;;;;;;;;;22.74;100.00;97976.23;1761604;80;27977;-88
2022/08/26 08:21:43;;;;;;;31.30;6.78;;;;;;;22.87;100.00;97981.63;1753951;81;20257;-88
2022/08/26 08:24:12;;;;;;;13.05;6.37;;;;;;;22.91;100.00;97976.23;1753046;80;28077;-89
2022/08/26 08:26:42;;;;;;;14.07;6.05;;;;;;;22.93;100.00;97975.01;1758737;81;28087;-88
2022/08/26 08:29:08;;;;;;;16.20;6.47;;;;;;;22.99;100.00;97971.23;1754503;81;28114;-88
2022/08/26 08:31:40;;;;;;;11.95;5.25;;;;;;;23.04;100.00;97973.63;1757549;81;28142;-88
2022/08/26 08:34:15;;;;;;;13.45;7.28;;;;;;;23.15;100.00;97978.41;1754402;81;28079;-88
2022/08/26 08:36:42;;;;;;;17.40;6.55;;;;;;;23.24;100.00;97967.05;1753865;81;28021;-88
2022/08/26 08:39:27;;;;;;;11.93;6.70;;;;;;;23.41;100.00;97972.36;1756904;81;28251;-88
2022/08/26 08:42:06;;;;;;;14.98;6.45;;;;;;;23.51;100.00;97970.16;1772800;77;28114;-88
2022/08/26 08:44:37;;;;;;;15.58;6.55;;;;;;;23.59;100.00;97970.52;1808157;77;28078;-88
2022/08/26 08:47:16;;;;;;;16.10;6.37;;;;;;;23.71;100.00;97963.56;1818751;78;28137;-88
2022/08/26 08:49:58;;;;;;;16.07;7.00;;;;;;;23.88;100.00;97970.19;1808866;78;28153;-88
2022/08/26 08:52:29;;;;;;;16.15;5.92;;;;;;;23.91;100.00;97965.76;1813745;78;28089;-88
2022/08/26 08:54:57;;;;;;;14.13;5.80;;;;;;;23.92;100.00;97954.56;1820309;77;28019;-89
2022/08/26 08:57:36;;;;;;;10.35;5.92;;;;;;;23.91;100.00;97955.58;1810225;78;28075;-88
2022/08/26 09:00:26;;;;;;;11.53;5.75;;;;;;;23.95;100.00;97954.97;1815901;77;28121;-88
2022/08/26 09:03:02;;;;;;;13.08;6.22;;;;;;;24.01;100.00;97949.31;1815511;78;28106;-88
2022/08/26 09:05:43;;;;;;;13.98;5.85;;;;;;;24.04;100.00;97944.91;1812484;78;28097;-88
2022/08/26 09:08:13;;;;;;;12.45;6.03;;;;;;;24.08;100.00;97943.47;1807923;78;28058;-88
2022/08/26 09:10:46;;;;;;;12.30;5.58;;;;;;;24.12;100.00;97943.36;1809072;78;28102;-89
2022/08/26 09:13:19;;;;;;;12.00;5.25;;;;;;;24.13;100.00;97946.36;1810843;78;28017;-88
2022/08/26 09:16:02;;;;;;;10.08;5.08;;;;;;;24.20;100.00;97949.89;1814136;77;28055;-88
2022/08/26 09:19:01;;;;;;;9.73;4.42;;;;;;;24.26;100.00;97940.23;1810623;77;28143;-88
2022/08/26 09:21:30;;;;;;;8.87;3.37;;;;;;;24.26;100.00;97942.39;1759089;79;28497;-88
2022/08/26 09:24:07;;;;;;;13.13;5.83;;;;;;;24.26;100.00;97941.05;1785901;79;31577;-88
2022/08/26 09:26:46;;;;;;;11.38;4.70;;;;;;;24.33;100.00;97942.40;1783127;79;28091;-88
2022/08/26 09:29:34;;;;;;;9.90;4.95;;;;;;;24.37;100.00;97941.77;1781993;79;28083;-88
2022/08/26 09:32:20;;;;;;;10.95;5.60;;;;;;;24.40;100.00;97941.34;1803141;77;28068;-89
2022/08/26 09:34:58;;;;;;;9.53;5.28;;;;;;;24.46;100.00;97932.50;1811129;78;28074;-89
2022/08/26 09:37:49;;;;;;;12.28;5.15;;;;;;;24.51;100.00;97933.20;1812087;77;28109;-89
2022/08/26 09:40:30;;;;;;;11.35;5.28;;;;;;;24.59;100.00;97930.33;1816020;78;28160;-89
2022/08/26 09:43:20;;;;;;;14.25;5.70;;;;;;;24.73;100.00;97931.11;1810428;78;28213;-89
2022/08/26 09:46:06;;;;;;;12.05;5.78;;;;;;;24.77;100.00;97937.17;1793275;78;28161;-89
2022/08/26 09:48:35;;;;;;;11.05;5.47;;;;;;;24.84;100.00;97934.48;1703509;82;28061;-88
2022/08/26 09:51:08;;;;;;;9.88;5.28;;;;;;;24.94;100.00;97934.90;1794836;79;28151;-89
2022/08/26 09:53:50;;;;;;;14.15;5.55;;;;;;;24.89;100.00;97934.71;1788203;79;28119;-88
2022/08/26 09:56:31;;;;;;;10.18;4.90;;;;;;;25.02;100.00;97932.01;1791201;79;28191;-88
2022/08/26 09:59:04;;;;;;;13.62;6.00;;;;;;;25.02;100.00;97914.61;1783247;79;28053;-88
2022/08/26 10:01:45;;;;;;;17.77;5.80;;;;;;;25.15;100.00;97924.45;1791204;79;28104;-87
2022/08/26 10:04:25;;;;;;;12.28;5.55;;;;;;;25.17;100.00;97923.19;1791042;78;28106;-88
2022/08/26 10:06:57;;;;;;;7.75;4.55;;;;;;;25.25;100.00;97920.80;1793135;79;28120;-88
2022/08/26 10:09:25;;;;;;;10.78;4.47;;;;;;;25.36;100.00;97915.61;1786733;79;28148;-88
2022/08/26 10:12:04;;;;;;;11.35;4.62;;;;;;;25.31;100.00;97920.75;1794056;79;28147;-88
2022/08/26 10:14:44;;;;;;;8.90;4.53;;;;;;;25.31;100.00;97916.73;1786193;79;28076;-88
2022/08/26 10:17:29;;;;;;;10.58;4.60;;;;;;;25.31;100.00;97911.92;1790707;79;28071;-88
2022/08/26 10:19:59;;;;;;;8.65;4.90;;;;;;;25.32;100.00;97911.69;1795634;79;28047;-88
2022/08/26 10:22:41;;;;;;;10.80;4.58;;;;;;;25.29;100.00;97906.77;1786692;79;28113;-88
2022/08/26 10:28:41;;;;;;;8.13;4.67;;;;;;;25.40;100.00;97906.61;1788933;79;28049;-88
2022/08/26 10:31:17;;;;;;;7.55;4.25;;;;;;;25.51;100.00;97902.43;1785780;78;28131;-89
2022/08/26 10:33:55;;;;;;;7.72;4.12;;;;;;;25.72;100.00;97898.10;1792417;79;28155;-88
2022/08/26 10:36:49;;;;;;;6.72;4.03;;;;;;;25.77;100.00;97899.61;1789359;79;28026;-88
2022/08/26 10:39:24;;;;;;;7.53;3.98;;;;;;;25.74;100.00;97896.04;1785502;78;28141;-88
2022/08/26 10:41:57;;;;;;;8.13;4.45;;;;;;;25.71;100.00;97891.09;1789886;78;28099;-88
2022/08/26 10:44:35;;;;;;;10.78;4.30;;;;;;;25.70;100.00;97892.95;1793155;79;28048;-89
2022/08/26 10:47:20;;;;;;;10.10;4.15;;;;;;;25.77;100.00;97892.91;1786485;79;28048;-88
2022/08/26 10:49:48;;;;;;;10.85;4.00;;;;;;;25.89;100.00;97887.16;1794166;79;28163;-88
2022/08/26 10:52:45;;;;;;;7.90;3.75;;;;;;;25.95;100.00;97886.81;1793913;78;28065;-88
2022/08/26 10:55:28;;;;;;;8.10;3.75;;;;;;;25.95;100.00;97886.30;1792546;78;28163;-88
2022/08/26 10:58:44;;;;;;;7.45;3.90;;;;;;;25.92;100.00;97882.69;1790518;78;28062;-88
2022/08/26 11:04:24;;;;;;;7.15;3.70;;;;;;;26.01;100.00;97884.08;1788029;79;28100;-88
2022/08/26 11:07:35;;;;;;;7.75;4.40;;;;;;;26.10;100.00;97877.40;1758558;81;28106;-88
2022/08/26 11:10:12;;;;;;;6.75;4.12;;;;;;;26.10;100.00;97873.38;1787022;79;28115;-88
2022/08/26 11:12:44;;;;;;;9.88;4.28;;;;;;;26.10;100.00;97871.20;1789964;79;28084;-88
2022/08/26 11:15:28;;;;;;;5.60;3.62;;;;;;;26.12;100.00;97871.30;1791792;79;28136;-88
2022/08/26 11:18:12;;;;;;;6.08;4.33;;;;;;;26.14;100.00;97865.70;1789821;79;28069;-88
2022/08/26 11:20:44;;;;;;;8.88;4.03;;;;;;;26.16;100.00;97863.62;1799341;78;28078;-87
2022/08/26 11:23:22;;;;;;;7.00;3.92;;;;;;;26.22;100.00;97858.24;1791864;79;28068;-88
2022/08/26 11:25:59;;;;;;;7.17;3.95;;;;;;;26.23;100.00;97856.38;1792106;78;28064;-88
2022/08/26 11:28:38;;;;;;;7.70;4.12;;;;;;;26.20;100.00;97852.75;1790156;79;28064;-88
2022/08/26 11:31:19;;;;;;;7.17;4.22;;;;;;;26.18;100.00;97846.25;1796732;79;28078;-88
2022/08/26 11:33:51;;;;;;;6.62;3.40;;;;;;;26.26;100.00;97844.37;1768299;79;28175;-88
2022/08/26 11:36:46;;;;;;;6.42;3.80;;;;;;;26.36;100.00;97844.68;1789387;79;28052;-87
2022/08/26 11:39:18;;;;;;;7.70;4.28;;;;;;;26.36;100.00;97840.14;1786613;79;28174;-88
2022/08/26 11:41:49;;;;;;;8.65;4.00;;;;;;;26.35;100.00;97838.49;1757596;79;28063;-88
2022/08/26 11:44:19;;;;;;;9.25;3.45;;;;;;;26.35;100.00;97836.36;1798467;77;28077;-88
2022/08/26 11:47:06;;;;;;;11.47;4.37;;;;;;;26.36;100.00;97838.80;1816494;76;28111;-88
2022/08/26 11:49:39;;;;;;;8.73;3.45;;;;;;;26.41;100.00;97847.00;1813098;78;32052;-88
2022/08/26 11:52:24;;;;;;;8.50;4.00;;;;;;;26.48;100.00;97848.28;1810974;77;28172;-87
2022/08/26 11:55:08;;;;;;;12.15;3.77;;;;;;;26.50;100.00;97844.34;1804719;77;28132;-87
2022/08/26 11:57:45;;;;;;;6.83;3.72;;;;;;;26.55;100.00;97849.04;1807810;78;28095;-87
2022/08/26 12:00:20;;;;;;;10.30;4.28;;;;;;;26.58;100.00;97847.23;1810532;78;28161;-87
2022/08/26 12:02:47;;;;;;;10.75;4.05;;;;;;;26.60;100.00;97845.16;1817069;77;28118;-87